Time;durP1;ratioP1;P1;durP2;ratioP2;P2;SDS_P1;SDS_P2;PMS_P1;PMS_P2;Temp;Humidity;BMP_temperature;BMP_pressure;BME280_temperature;BME280_humidity;BME280_pressure;Samples;Min_cycle;Max_cycle;Signal;HPM_P1;HPM_P2
2021/12/05 00:26:56;;;;;;;10.83;2.10;;;;;3.50;99334.00;;;;10483111;28;20204;-77
2021/12/05 00:32:08;;;;;;;3.47;1.37;;;;;3.50;99318.00;;;;10499244;28;20213;-77
2021/12/05 00:43:20;;;;;;;7.03;1.90;;;;;3.50;99331.00;;;;10465035;28;20576;-78
2021/12/05 00:54:03;;;;;;;13.00;2.80;;;;;3.50;99337.00;;;;10481035;28;20584;-77
2021/12/05 01:09:38;;;;;;;4.93;2.00;;;;;3.50;99335.00;;;;10480309;28;20288;-77
2021/12/05 01:14:58;;;;;;;7.57;1.77;;;;;3.50;99324.00;;;;10462834;28;20229;-78
2021/12/05 01:20:10;;;;;;;6.47;1.77;;;;;3.60;99339.00;;;;10462719;28;20862;-77
2021/12/05 01:25:54;;;;;;;9.73;2.97;;;;;3.60;99322.00;;;;10463089;28;20284;-78
2021/12/05 01:41:09;;;;;;;10.00;2.40;;;;;3.90;99328.00;;;;10499089;28;20296;-78
2021/12/05 02:39:32;;;;;;;5.33;2.23;;;;;3.90;99283.00;;;;10519511;28;20757;-79
2021/12/05 02:44:38;;;;;;;4.57;2.27;;;;;3.90;99276.00;;;;10486443;28;20556;-79
2021/12/05 02:49:45;;;;;;;3.47;2.00;;;;;3.90;99295.00;;;;10485313;28;20200;-79
2021/12/05 02:54:53;;;;;;;4.07;1.77;;;;;4.00;99284.00;;;;10501442;28;20223;-79
2021/12/05 02:59:58;;;;;;;6.73;2.00;;;;;4.00;99284.00;;;;10468221;28;20568;-79
2021/12/05 03:05:01;;;;;;;8.83;2.27;;;;;4.00;99291.00;;;;10484418;28;20717;-78
2021/12/05 03:10:03;;;;;;;6.77;2.27;;;;;4.00;99289.00;;;;10484272;28;20232;-78
2021/12/05 03:15:09;;;;;;;5.43;2.50;;;;;4.10;99285.00;;;;10500480;28;20233;-79
2021/12/05 03:20:13;;;;;;;5.47;2.63;;;;;4.10;99289.00;;;;10467724;28;20201;-79
2021/12/05 03:25:15;;;;;;;7.67;2.77;;;;;4.10;99298.00;;;;10467623;28;20233;-79
2021/12/05 03:30:22;;;;;;;5.93;3.30;;;;;4.10;99289.00;;;;10474665;28;20193;-80
2021/12/05 03:35:28;;;;;;;8.63;3.20;;;;;4.00;99283.00;;;;10498386;27;20228;-80
2021/12/05 03:40:34;;;;;;;7.10;2.87;;;;;3.90;99277.00;;;;10490701;28;20266;-80
2021/12/05 03:45:42;;;;;;;4.77;2.87;;;;;3.90;99280.00;;;;10493268;28;20201;-80
2021/12/05 03:50:47;;;;;;;5.83;2.33;;;;;3.80;99277.00;;;;10508927;27;20188;-79
2021/12/05 03:55:52;;;;;;;6.37;2.47;;;;;3.70;99289.00;;;;10516926;27;20679;-79
2021/12/05 04:00:56;;;;;;;5.10;3.10;;;;;3.60;99284.00;;;;10550312;27;20192;-78
2021/12/05 04:06:02;;;;;;;4.83;2.60;;;;;3.50;99285.00;;;;10533504;27;20200;-80
2021/12/05 04:11:34;;;;;;;4.30;2.50;;;;;3.50;99270.00;;;;10534980;27;20288;-80
2021/12/05 04:16:37;;;;;;;4.00;2.93;;;;;3.40;99267.00;;;;10528201;27;20283;-80
2021/12/05 04:21:42;;;;;;;4.03;2.47;;;;;3.40;99259.00;;;;10517613;27;20208;-80
2021/12/05 04:26:45;;;;;;;5.27;3.90;;;;;3.40;99258.00;;;;10533426;27;20283;-80
2021/12/05 04:31:48;;;;;;;7.37;3.27;;;;;3.50;99263.00;;;;10533296;27;20247;-80
2021/12/05 04:36:56;;;;;;;4.93;3.17;;;;;3.50;99266.00;;;;10515407;27;20598;-80
2021/12/05 04:41:59;;;;;;;7.57;3.77;;;;;3.60;99270.00;;;;10475576;28;20220;-80
2021/12/05 04:47:05;;;;;;;7.17;3.97;;;;;3.60;99267.00;;;;10466864;28;20653;-79
2021/12/05 04:52:09;;;;;;;6.40;4.03;;;;;3.60;99271.00;;;;10432538;28;20677;-80
2021/12/05 04:57:11;;;;;;;5.73;3.87;;;;;3.60;99263.00;;;;10448182;28;20256;-80
2021/12/05 05:02:14;;;;;;;5.53;3.93;;;;;3.70;99267.00;;;;10432015;28;20204;-80
2021/12/05 05:07:25;;;;;;;7.23;3.80;;;;;3.70;99281.00;;;;10449901;28;20200;-80
2021/12/05 05:12:27;;;;;;;8.40;4.80;;;;;3.70;99268.00;;;;10514093;27;20199;-80
2021/12/05 05:17:29;;;;;;;6.47;4.50;;;;;3.70;99277.00;;;;10531108;27;20220;-80
2021/12/05 05:53:29;;;;;;;7.10;4.40;;;;;3.60;99299.00;;;;10528451;27;20208;-79
2021/12/05 05:58:45;;;;;;;8.60;5.20;;;;;3.60;99306.00;;;;10529659;28;20882;-79
2021/12/05 06:03:48;;;;;;;10.67;5.37;;;;;3.60;99306.00;;;;10561714;27;20196;-78
2021/12/05 06:08:51;;;;;;;9.20;5.13;;;;;3.70;99312.00;;;;10511773;28;20200;-78
2021/12/05 06:13:53;;;;;;;8.27;3.73;;;;;3.70;99311.00;;;;10489212;28;20215;-79
2021/12/05 06:18:55;;;;;;;6.17;4.23;;;;;3.70;99325.00;;;;10495290;28;20200;-79
2021/12/05 06:23:58;;;;;;;6.23;4.00;;;;;3.70;99321.00;;;;10509728;28;20660;-78
2021/12/05 06:29:16;;;;;;;7.10;4.70;;;;;3.70;99330.00;;;;10501377;28;20201;-79
2021/12/05 06:40:00;;;;;;;6.73;3.97;;;;;3.80;99326.00;;;;10481726;28;20673;-80
2021/12/05 06:50:23;;;;;;;11.20;4.40;;;;;3.80;99340.00;;;;10476509;28;20193;-79
2021/12/05 06:55:25;;;;;;;7.50;4.80;;;;;3.80;99340.00;;;;10477609;28;20706;-78
2021/12/05 07:00:29;;;;;;;6.20;4.40;;;;;3.80;99347.00;;;;10461135;28;20193;-79
2021/12/05 07:10:56;;;;;;;7.50;4.47;;;;;3.80;99355.00;;;;10502164;28;20209;-79
2021/12/05 07:16:44;;;;;;;5.90;4.67;;;;;3.80;99361.00;;;;10450441;28;20213;-78
2021/12/05 07:21:36;;;;;;;8.53;5.23;;;;;3.80;99365.00;;;;10462794;28;20728;-78
2021/12/05 07:42:33;;;;;;;8.80;5.93;;;;;3.80;99378.00;;;;10494249;28;20579;-79
2021/12/05 07:47:38;;;;;;;10.20;6.73;;;;;3.80;99391.00;;;;10509199;28;20204;-78
2021/12/05 07:52:45;;;;;;;12.00;6.30;;;;;3.80;99397.00;;;;10450920;28;20251;-78
2021/12/05 07:58:04;;;;;;;8.47;5.97;;;;;3.80;99402.00;;;;10434139;28;20217;-78
2021/12/05 08:19:08;;;;;;;4.83;4.13;;;;;3.80;99418.00;;;;10491124;28;20208;-79
2021/12/05 08:24:10;;;;;;;7.83;4.10;;;;;4.10;99420.00;;;;10508038;28;20197;-79
2021/12/05 08:29:16;;;;;;;5.93;4.13;;;;;4.30;99420.00;;;;10490394;28;20211;-78
2021/12/05 09:27:52;;;;;;;8.30;6.30;;;;;4.20;99488.00;;;;10487066;28;20655;-79
2021/12/05 10:37:23;;;;;;;11.63;8.07;;;;;5.30;99569.00;;;;10484137;28;20224;-78
2021/12/05 10:42:41;;;;;;;8.90;6.77;;;;;5.30;99573.00;;;;10493360;28;20664;-78
2021/12/05 10:47:46;;;;;;;10.37;7.43;;;;;5.20;99571.00;;;;10510378;28;20257;-78
2021/12/05 10:53:27;;;;;;;10.20;6.57;;;;;5.20;99580.00;;;;10559207;27;20200;-78
2021/12/05 10:58:55;;;;;;;9.17;6.90;;;;;5.10;99582.00;;;;10550082;27;20226;-78
2021/12/05 11:04:20;;;;;;;12.10;6.93;;;;;5.10;99587.00;;;;10537062;28;20219;-77
2021/12/05 11:09:30;;;;;;;9.73;6.80;;;;;5.10;99596.00;;;;10502643;27;20614;-77
2021/12/05 11:14:39;;;;;;;11.17;7.83;;;;;5.10;99606.00;;;;10493657;28;20219;-78
2021/12/05 11:19:51;;;;;;;9.30;7.67;;;;;5.00;99603.00;;;;10494125;28;20254;-77
2021/12/05 11:25:02;;;;;;;10.20;7.40;;;;;5.00;99606.00;;;;10509312;28;20205;-77
2021/12/05 11:30:18;;;;;;;10.03;7.57;;;;;5.10;99605.00;;;;10492758;28;20642;-77
2021/12/05 11:35:37;;;;;;;10.13;6.83;;;;;5.20;99606.00;;;;10493138;28;20250;-77
2021/12/05 11:40:47;;;;;;;7.83;6.80;;;;;5.30;99608.00;;;;10447174;28;20251;-78
2021/12/05 11:46:09;;;;;;;15.20;7.90;;;;;5.40;99622.00;;;;10484006;28;20653;-78
2021/12/05 11:51:31;;;;;;;11.20;9.00;;;;;5.40;99629.00;;;;10446762;28;20212;-77
2021/12/05 11:56:41;;;;;;;11.40;8.70;;;;;5.60;99648.00;;;;10450020;28;20262;-78
2021/12/05 12:01:43;;;;;;;12.90;10.70;;;;;5.60;99655.00;;;;10483216;28;20198;-78
2021/12/05 12:07:04;;;;;;;13.13;9.50;;;;;5.50;99647.00;;;;10451943;28;20197;-78
2021/12/05 12:12:07;;;;;;;11.47;8.97;;;;;5.50;99659.00;;;;10533740;27;20200;-77
2021/12/05 12:17:16;;;;;;;10.47;8.60;;;;;5.50;99665.00;;;;10533533;27;20790;-78
2021/12/05 12:22:20;;;;;;;14.57;9.47;;;;;5.50;99662.00;;;;10516312;27;20245;-77
2021/12/05 12:27:24;;;;;;;11.90;9.07;;;;;5.60;99672.00;;;;10530068;28;21112;-77
2021/12/05 12:32:32;;;;;;;17.00;11.53;;;;;5.50;99671.00;;;;10510241;28;20212;-77
2021/12/05 12:37:55;;;;;;;13.53;9.27;;;;;5.50;99675.00;;;;10526739;27;20230;-78
2021/12/05 12:42:57;;;;;;;12.33;9.80;;;;;5.60;99679.00;;;;10449280;28;20198;-77
2021/12/05 12:47:59;;;;;;;13.50;8.93;;;;;5.70;99694.00;;;;10466220;28;20204;-78
2021/12/05 12:53:12;;;;;;;13.53;9.93;;;;;5.80;99686.00;;;;10450861;28;20220;-77
2021/12/05 12:58:43;;;;;;;17.27;10.60;;;;;5.80;99682.00;;;;10465545;28;20247;-77
2021/12/05 13:15:38;;;;;;;13.40;8.57;;;;;5.60;99699.00;;;;10419191;28;20270;-77
2021/12/05 13:20:43;;;;;;;14.93;8.43;;;;;5.50;99704.00;;;;10480237;28;20201;-77
2021/12/05 13:26:06;;;;;;;11.80;9.07;;;;;5.40;99700.00;;;;10479762;28;20247;-77
2021/12/05 13:31:27;;;;;;;12.83;8.50;;;;;5.30;99700.00;;;;10456412;28;20243;-78
2021/12/05 13:36:34;;;;;;;13.33;8.50;;;;;5.30;99709.00;;;;10472004;28;20247;-78
2021/12/05 13:41:36;;;;;;;11.97;9.07;;;;;5.20;99719.00;;;;10497775;28;20197;-77
2021/12/05 13:46:39;;;;;;;12.60;8.67;;;;;5.20;99726.00;;;;10521493;28;20197;-78
2021/12/05 13:51:41;;;;;;;11.37;8.77;;;;;5.20;99721.00;;;;10446801;28;20206;-77
2021/12/05 13:56:46;;;;;;;11.47;9.00;;;;;5.20;99731.00;;;;10430529;28;20271;-77
2021/12/05 14:01:51;;;;;;;12.40;9.33;;;;;5.20;99739.00;;;;10462918;28;20281;-77
2021/12/05 14:07:04;;;;;;;12.23;9.20;;;;;5.20;99747.00;;;;10445421;28;20205;-77
2021/12/05 14:12:10;;;;;;;13.47;9.47;;;;;5.30;99751.00;;;;10446596;28;20197;-77
2021/12/05 14:17:17;;;;;;;17.13;9.97;;;;;5.30;99766.00;;;;10461814;28;20270;-77
2021/12/05 14:22:21;;;;;;;15.53;10.27;;;;;5.30;99775.00;;;;10430003;28;20202;-76
2021/12/05 14:27:27;;;;;;;14.07;9.43;;;;;5.20;99787.00;;;;10462205;28;20198;-77
2021/12/05 14:32:31;;;;;;;14.87;10.80;;;;;5.20;99793.00;;;;10445094;28;20263;-77
2021/12/05 14:37:35;;;;;;;16.37;10.97;;;;;5.20;99798.00;;;;10496445;28;20216;-77
2021/12/05 14:42:41;;;;;;;17.27;11.07;;;;;5.20;99796.00;;;;10486243;28;20201;-77
2021/12/05 14:47:46;;;;;;;16.93;11.80;;;;;5.20;99799.00;;;;10485953;28;20201;-77
2021/12/05 14:52:52;;;;;;;18.10;12.73;;;;;5.20;99811.00;;;;10502551;28;20520;-77
2021/12/05 14:57:58;;;;;;;15.33;11.63;;;;;5.10;99813.00;;;;10495267;28;20228;-77
2021/12/05 15:03:20;;;;;;;17.33;12.63;;;;;5.10;99823.00;;;;10503888;28;20734;-77
2021/12/05 15:08:25;;;;;;;17.37;11.73;;;;;5.10;99834.00;;;;10529223;28;20254;-77
2021/12/05 15:13:27;;;;;;;19.00;12.07;;;;;5.00;99840.00;;;;10528888;28;20203;-77
2021/12/05 15:18:32;;;;;;;18.00;12.23;;;;;5.00;99847.00;;;;10544443;28;20212;-77
2021/12/05 15:23:36;;;;;;;16.70;13.23;;;;;5.00;99856.00;;;;10514538;28;20215;-77
2021/12/05 15:28:39;;;;;;;19.43;13.30;;;;;4.90;99871.00;;;;10510810;28;20224;-77
2021/12/05 15:33:42;;;;;;;20.53;14.57;;;;;4.90;99868.00;;;;10520588;28;20224;-77
2021/12/05 15:38:44;;;;;;;21.07;13.97;;;;;4.90;99879.00;;;;10534446;28;20228;-77
2021/12/05 15:43:46;;;;;;;19.90;13.10;;;;;4.80;99895.00;;;;10551899;27;20200;-77
2021/12/05 15:48:49;;;;;;;18.40;13.17;;;;;4.80;99891.00;;;;10522630;27;20266;-77
2021/12/05 15:53:50;;;;;;;19.77;14.70;;;;;4.80;99919.00;;;;10492505;28;20197;-77
2021/12/05 15:59:01;;;;;;;20.50;14.20;;;;;4.70;99920.00;;;;10491984;28;20250;-77
2021/12/05 16:04:05;;;;;;;21.13;15.73;;;;;4.70;99939.00;;;;10509024;28;20330;-77
2021/12/05 16:09:16;;;;;;;18.73;14.37;;;;;4.70;99933.00;;;;10508069;27;20213;-77
2021/12/05 16:14:30;;;;;;;20.73;15.10;;;;;4.70;99948.00;;;;10550474;27;20647;-77
2021/12/05 16:19:35;;;;;;;18.07;14.10;;;;;4.70;99955.00;;;;10550356;27;20687;-77
2021/12/05 16:24:55;;;;;;;19.30;14.50;;;;;4.60;99973.00;;;;10536479;27;20196;-77
2021/12/05 16:29:57;;;;;;;17.20;14.00;;;;;4.60;99966.00;;;;10549051;27;20215;-78
2021/12/05 16:34:59;;;;;;;18.30;12.50;;;;;4.60;99969.00;;;;10548396;27;20223;-77
2021/12/05 16:40:01;;;;;;;18.03;12.90;;;;;4.50;99980.00;;;;10549938;27;20253;-77
2021/12/05 16:45:03;;;;;;;17.60;13.07;;;;;4.50;99983.00;;;;10482380;28;20254;-77
2021/12/05 16:50:13;;;;;;;20.80;15.67;;;;;4.50;100000.00;;;;10449769;28;20198;-77
2021/12/05 16:55:25;;;;;;;17.70;12.57;;;;;4.50;100001.00;;;;10433258;28;20222;-77
2021/12/05 17:00:30;;;;;;;20.60;14.57;;;;;4.50;100006.00;;;;10464614;28;20197;-77
2021/12/05 17:05:39;;;;;;;19.80;14.33;;;;;4.50;100012.00;;;;10444516;28;20833;-77
2021/12/05 17:10:45;;;;;;;21.97;15.70;;;;;4.50;100027.00;;;;10492800;28;20664;-77
2021/12/05 17:15:54;;;;;;;19.47;14.83;;;;;4.50;100039.00;;;;10478773;28;20303;-77
2021/12/05 17:21:00;;;;;;;20.83;14.17;;;;;4.40;100044.00;;;;10506252;28;20196;-77
2021/12/05 17:26:26;;;;;;;20.73;14.87;;;;;4.50;100062.00;;;;10504422;28;20250;-77
2021/12/05 17:31:33;;;;;;;23.93;15.83;;;;;4.50;100070.00;;;;10488620;28;20213;-77
2021/12/05 17:36:38;;;;;;;21.27;16.37;;;;;4.50;100064.00;;;;10496281;27;20278;-77
2021/12/05 17:41:42;;;;;;;24.40;17.23;;;;;4.40;100078.00;;;;10439527;28;20217;-77
2021/12/05 17:46:46;;;;;;;22.00;16.63;;;;;4.40;100087.00;;;;10431560;28;20665;-77
2021/12/05 17:51:48;;;;;;;22.10;15.63;;;;;4.40;100094.00;;;;10446497;28;20285;-77
2021/12/05 17:56:53;;;;;;;25.23;16.83;;;;;4.40;100109.00;;;;10462983;28;20217;-77
2021/12/05 18:07:20;;;;;;;38.53;23.90;;;;;4.40;100119.00;;;;10464892;28;20599;-77
2021/12/05 18:12:32;;;;;;;39.80;24.20;;;;;4.40;100131.00;;;;10546383;28;20237;-77
2021/12/05 18:17:36;;;;;;;33.67;22.83;;;;;4.40;100136.00;;;;10527458;27;20226;-77
2021/12/05 18:22:38;;;;;;;29.40;21.67;;;;;4.40;100143.00;;;;10546131;28;20192;-77
2021/12/05 18:27:42;;;;;;;27.33;19.57;;;;;4.40;100147.00;;;;10529418;28;20883;-77
2021/12/05 18:32:44;;;;;;;29.00;19.97;;;;;4.40;100157.00;;;;10528603;28;20273;-77
2021/12/05 18:37:48;;;;;;;27.77;19.73;;;;;4.40;100169.00;;;;10511802;28;20235;-77
2021/12/05 18:42:50;;;;;;;28.23;20.30;;;;;4.30;100171.00;;;;10528571;28;20196;-77
2021/12/05 18:47:52;;;;;;;48.17;29.63;;;;;4.40;100198.00;;;;10528371;28;20196;-77
2021/12/05 18:52:54;;;;;;;45.40;27.97;;;;;4.40;100217.00;;;;10520581;28;20203;-77
2021/12/05 18:57:58;;;;;;;35.10;23.40;;;;;4.40;100224.00;;;;10547671;27;20219;-77
2021/12/05 19:13:33;;;;;;;33.43;23.83;;;;;4.30;100263.00;;;;10509738;28;20201;-77
2021/12/05 19:18:36;;;;;;;39.63;25.73;;;;;4.30;100260.00;;;;10509587;28;20227;-77
2021/12/05 19:23:38;;;;;;;32.43;24.67;;;;;4.30;100271.00;;;;10492928;28;20196;-77
2021/12/05 19:28:40;;;;;;;33.47;23.53;;;;;4.30;100277.00;;;;10493406;28;20208;-77
2021/12/05 19:33:44;;;;;;;40.90;26.90;;;;;4.30;100275.00;;;;10492544;28;20239;-77
2021/12/05 19:38:47;;;;;;;43.67;27.93;;;;;4.30;100282.00;;;;10508558;28;20224;-77
2021/12/05 19:43:49;;;;;;;34.80;24.83;;;;;4.30;100280.00;;;;10492341;28;20203;-77
2021/12/05 19:48:51;;;;;;;37.77;26.17;;;;;4.30;100292.00;;;;10492582;28;20197;-77
2021/12/05 19:53:55;;;;;;;39.23;28.53;;;;;4.40;100296.00;;;;10491423;28;20245;-77
2021/12/05 19:58:57;;;;;;;39.83;26.87;;;;;4.40;100296.00;;;;10491197;28;20266;-77
2021/12/05 20:03:59;;;;;;;29.50;21.77;;;;;4.30;100311.00;;;;10492061;28;20683;-77
2021/12/05 20:09:05;;;;;;;20.23;15.87;;;;;4.30;100322.00;;;;10487199;28;20205;-77
2021/12/05 20:14:08;;;;;;;19.60;14.27;;;;;4.30;100345.00;;;;10490863;28;20542;-77
2021/12/05 20:19:11;;;;;;;19.90;14.73;;;;;4.30;100334.00;;;;10507500;28;20213;-77
2021/12/05 20:24:17;;;;;;;17.87;13.47;;;;;4.20;100335.00;;;;10507602;28;20197;-78
2021/12/05 20:29:20;;;;;;;19.07;13.23;;;;;4.20;100335.00;;;;10490986;28;20204;-77
2021/12/05 20:34:24;;;;;;;18.73;13.63;;;;;4.20;100343.00;;;;10490270;28;20250;-77
2021/12/05 20:39:26;;;;;;;22.10;15.60;;;;;4.20;100352.00;;;;10487428;28;20221;-77
2021/12/05 20:44:29;;;;;;;22.63;16.43;;;;;4.20;100372.00;;;;10498069;28;20186;-77
2021/12/05 20:49:31;;;;;;;34.73;23.63;;;;;4.10;100366.00;;;;10464378;28;20213;-77
2021/12/05 20:54:35;;;;;;;36.23;24.40;;;;;4.10;100371.00;;;;10464661;28;20205;-78
2021/12/05 20:59:38;;;;;;;31.13;22.00;;;;;4.10;100382.00;;;;10462853;28;20221;-77
2021/12/05 21:04:40;;;;;;;38.53;23.50;;;;;4.10;100382.00;;;;10463959;28;20189;-77
2021/12/05 21:09:43;;;;;;;39.27;27.80;;;;;4.10;100394.00;;;;10501503;28;20283;-77
2021/12/05 21:14:46;;;;;;;45.53;30.10;;;;;4.10;100387.00;;;;10489350;28;20196;-78
2021/12/05 21:19:48;;;;;;;44.50;27.20;;;;;4.00;100403.00;;;;10520881;28;20205;-78
2021/12/05 21:24:50;;;;;;;40.73;29.93;;;;;4.00;100414.00;;;;10505179;28;20189;-78
2021/12/05 21:29:53;;;;;;;45.10;29.27;;;;;4.00;100419.00;;;;10474589;28;20212;-77
2021/12/05 21:35:09;;;;;;;46.43;31.83;;;;;4.00;100418.00;;;;10452537;28;20232;-78
2021/12/05 21:40:17;;;;;;;38.53;26.97;;;;;4.00;100428.00;;;;10486677;28;20220;-77
2021/12/05 21:45:20;;;;;;;40.83;29.17;;;;;4.00;100433.00;;;;10472155;28;20702;-77
2021/12/05 21:50:22;;;;;;;41.07;28.03;;;;;4.00;100446.00;;;;10488491;28;20200;-77
2021/12/05 21:55:26;;;;;;;41.90;28.13;;;;;4.00;100467.00;;;;10487783;28;20204;-78
2021/12/05 22:00:29;;;;;;;38.93;28.77;;;;;4.00;100472.00;;;;10470430;28;20236;-77
2021/12/05 22:05:34;;;;;;;39.73;26.23;;;;;4.00;100486.00;;;;10503237;28;20736;-77
2021/12/05 22:10:36;;;;;;;37.97;26.60;;;;;4.00;100496.00;;;;10515815;27;20540;-77
2021/12/05 22:15:38;;;;;;;38.47;26.23;;;;;4.00;100503.00;;;;10529645;27;20241;-77
2021/12/05 22:20:52;;;;;;;35.50;25.23;;;;;4.00;100522.00;;;;10529265;27;20225;-77
2021/12/05 22:25:54;;;;;;;35.00;25.60;;;;;4.00;100520.00;;;;10530079;28;20200;-77
2021/12/05 22:30:56;;;;;;;39.07;25.47;;;;;4.00;100532.00;;;;10528865;28;20287;-77
2021/12/05 22:35:59;;;;;;;36.07;25.53;;;;;4.00;100535.00;;;;10539222;28;20208;-77
2021/12/05 22:41:03;;;;;;;35.57;25.03;;;;;3.90;100544.00;;;;10448690;28;20202;-77
2021/12/05 22:46:07;;;;;;;36.23;24.70;;;;;3.90;100557.00;;;;10477536;28;20227;-77
2021/12/05 22:51:11;;;;;;;36.40;25.53;;;;;3.90;100569.00;;;;10477384;28;20189;-77
2021/12/05 22:56:13;;;;;;;35.70;24.93;;;;;3.90;100568.00;;;;10460790;28;20272;-77
2021/12/05 23:01:21;;;;;;;35.30;23.77;;;;;3.90;100573.00;;;;10490184;28;20722;-77
2021/12/05 23:06:25;;;;;;;33.50;23.87;;;;;3.90;100578.00;;;;10518312;28;20668;-77
2021/12/05 23:11:27;;;;;;;37.57;22.93;;;;;3.90;100592.00;;;;10539008;28;20196;-78
2021/12/05 23:16:30;;;;;;;31.77;21.93;;;;;3.90;100586.00;;;;10562646;28;20215;-78
2021/12/05 23:21:37;;;;;;;31.60;21.37;;;;;3.90;100593.00;;;;10544922;28;20181;-77
2021/12/05 23:26:43;;;;;;;28.93;20.60;;;;;3.90;100595.00;;;;10528208;28;20207;-77
2021/12/05 23:31:46;;;;;;;29.70;19.77;;;;;3.90;100596.00;;;;10529933;28;20266;-77
2021/12/05 23:36:49;;;;;;;28.10;19.07;;;;;3.90;100593.00;;;;10485239;28;20217;-77
2021/12/05 23:41:52;;;;;;;27.27;18.90;;;;;3.80;100599.00;;;;10472263;28;20204;-77
2021/12/05 23:46:54;;;;;;;28.23;19.67;;;;;3.80;100608.00;;;;10508250;28;20337;-77
2021/12/05 23:51:56;;;;;;;26.10;18.77;;;;;3.80;100606.00;;;;10510043;28;20231;-78
2021/12/05 23:56:58;;;;;;;28.07;18.73;;;;;3.80;100605.00;;;;10493848;28;20250;-77
